Terminal Aerodrome Forecast
Issued by NWS Sioux Falls, SD

Home | Current Version | Previous Version | Text Only | Print | Product List | Glossary On
Versions: 1 2 3 4 5 6 7 8 9 10 11 12 13
000
FTUS43 KFSD 021740
TAFHON
TAF
KHON 021740Z 0218/0318 18009KT P6SM FEW050
     FM021900 17013G18KT P6SM FEW060
     FM030000 16012KT P6SM FEW150
     FM030300 15007KT P6SM SCT100
     FM030900 VRB03KT P6SM SCT250
     FM031400 35010KT P6SM SCT250
     FM031600 36016G24KT P6SM SCT150=

USA.gov is the U.S. government's official web portal to all federal, state and local government web resources and services.